Main page
METAR-TAF:

METAR-TAF

Airports :

Bacha Khan International Airport

Peshawar, Pakistan

latitude: 34-01N, longitude: 071-35E, elevation: 359 m

Current weather observation

The report was made 30 minutes ago, at 05:30 UTC
Wind 6 kt from the North
Temperature 31°C
Humidity 43%
Pressure 1008 hPa
Visibility 10 km or more

METAR: OPPS 250530Z 36006KT 9999 NSC 31/17 Q1008

Time: 11:00 (06:00 UTC)

Forecast

The report was made 2 hours and 30 minutes ago, at 03:30 UTC
Forecast valid from 25 at 06 UTC to 26 at 12 UTC
Wind 6 kt from the Southeast
Visibility: 7000 m
Becoming
from 25 at 12 UTC to 25 at 15 UTC
Wind 8 kt from the Southeast
Visibility: 5000 m
Few clouds at a height of 12000 ft
haze
Becoming
from 26 at 01 UTC to 26 at 03 UTC
Wind 6 kt from the Northwest
Visibility: 7000 m

TAF: OPPS 250330Z 2506/2612 13006KT 7000 NSC BECMG 2512/2515 13008KT 5000 HZ FEW120 BECMG 2601/2603 31006KT 7000 NSC

Weather observations and forecasts of more than 4000 airports (METAR and TAF reports).

The available stations are represented by yellow and red dots on the map.

Hover mouse over dot to see the name of the station.

Then click to see weather observations and forecasts.

To change the map : click on the green buttons with a black cross to zoom in, on the green button with a dash to zoom out, or on the green arrows for adjacent maps.


METAR-TAF: